Hauptseite
METAR-TAF:

METAR-TAF

Flughäfen :

Aigen im Ennstal, Österreich

Breite: 47-32N, Länge: 014-08E, Höhe: 638 m

METAR: fehlend

Zeit: 02:52 (01:52 UTC)

Prognose

Neuester Wetterbericht von vor 14 Stunden und 37 Minuten, um 11:15 UTC
Gültige Prognose vom 04 um 12 UTC bis 04 um 21 UTC
Wind 7 kt aus Nord/Nordost
Sichtweite 10 km oder mehr
Leicht bewölkt in der Höhe von 1500 ft
Aufgelockert bewölkt in der Höhe von 3500 ft
Durchbrochene Bewölkung in der Höhe von 5000 ft
Zeitweise
vom 04 um 12 UTC bis 04 um 21 UTC
Wind 7 kt aus Südwest
Sichtweite: 8000 m
Leicht bewölkt in der Höhe von 1000 ft
Aufgelockert bewölkt in der Höhe von 3000 ft
Durchbrochene Bewölkung in der Höhe von 4000 ft
Schnee leicht

TAF: LOXA 041115Z 0412/0421 02007KT 9999 FEW015 SCT035 BKN050 TEMPO 0412/0421 23007KT 8000 -SN FEW010 SCT030 BKN040

Wetterbeobachtungen und Prognosen von mehr als 4000 Flughäfen (METAR und TAF Bericht).

Die verfügbaren Stationen werden durch gelbe und rote Markierungen auf der Karte dargestellt.

Führen Sie die Maus auf sie, um den Namen der Station zu sehen.

Darauf klicken, um die Beobachtung von Wetterbeobachtungen und Prognosen zu sehen.

Um die Karte zu ändern : klicken Sie auf den grünen Tasten mit einem schwarzen Kreuz Zum Vergrößern, auf den grünen Button mit einem Gedankenstrich zu verkleinern, oder auf die grünen Pfeile für benachbarte Karten.


METAR-TAF: